sensor_id;sensor_type;location;lat;lon;timestamp;temperature;humidity
56538;DHT22;42435;53.292;6.000;2022-12-10T00:00:45;1.50;87.30
56538;DHT22;42435;53.292;6.000;2022-12-10T00:03:14;1.50;87.30
56538;DHT22;42435;53.292;6.000;2022-12-10T00:05:48;1.50;87.30
56538;DHT22;42435;53.292;6.000;2022-12-10T00:08:13;1.50;87.30
56538;DHT22;42435;53.292;6.000;2022-12-10T00:10:49;1.50;87.20
56538;DHT22;42435;53.292;6.000;2022-12-10T00:13:20;1.50;87.20
56538;DHT22;42435;53.292;6.000;2022-12-10T00:15:52;1.50;87.20
56538;DHT22;42435;53.292;6.000;2022-12-10T00:18:23;1.50;87.10
56538;DHT22;42435;53.292;6.000;2022-12-10T00:20:55;1.50;87.20
56538;DHT22;42435;53.292;6.000;2022-12-10T00:23:29;1.50;87.20
56538;DHT22;42435;53.292;6.000;2022-12-10T00:26:34;1.50;87.20
56538;DHT22;42435;53.292;6.000;2022-12-10T00:29:07;1.50;87.20
56538;DHT22;42435;53.292;6.000;2022-12-10T00:31:59;1.60;87.20
56538;DHT22;42435;53.292;6.000;2022-12-10T00:35:00;1.60;87.20
56538;DHT22;42435;53.292;6.000;2022-12-10T00:37:40;1.60;87.30
56538;DHT22;42435;53.292;6.000;2022-12-10T00:40:34;1.60;87.20
56538;DHT22;42435;53.292;6.000;2022-12-10T00:43:23;1.60;87.20
56538;DHT22;42435;53.292;6.000;2022-12-10T00:45:59;1.60;87.30
56538;DHT22;42435;53.292;6.000;2022-12-10T00:48:31;1.60;87.20
56538;DHT22;42435;53.292;6.000;2022-12-10T00:51:58;1.70;87.30
56538;DHT22;42435;53.292;6.000;2022-12-10T00:53:59;1.60;87.30
56538;DHT22;42435;53.292;6.000;2022-12-10T00:56:36;1.70;87.30
56538;DHT22;42435;53.292;6.000;2022-12-10T00:59:17;1.70;87.30
56538;DHT22;42435;53.292;6.000;2022-12-10T01:01:43;1.70;87.40
56538;DHT22;42435;53.292;6.000;2022-12-10T01:04:17;1.70;87.30
56538;DHT22;42435;53.292;6.000;2022-12-10T01:10:21;1.70;87.40
56538;DHT22;42435;53.292;6.000;2022-12-10T01:13:04;1.70;87.30
56538;DHT22;42435;53.292;6.000;2022-12-10T01:15:37;1.70;87.30
56538;DHT22;42435;53.292;6.000;2022-12-10T01:21:04;1.70;87.30
56538;DHT22;42435;53.292;6.000;2022-12-10T01:24:11;1.70;87.30
56538;DHT22;42435;53.292;6.000;2022-12-10T01:27:09;1.70;87.30
56538;DHT22;42435;53.292;6.000;2022-12-10T01:30:11;1.70;87.30
56538;DHT22;42435;53.292;6.000;2022-12-10T01:32:51;1.70;87.30
56538;DHT22;42435;53.292;6.000;2022-12-10T01:35:22;1.70;87.30
56538;DHT22;42435;53.292;6.000;2022-12-10T01:38:13;1.70;87.30
56538;DHT22;42435;53.292;6.000;2022-12-10T01:41:00;1.70;87.30
56538;DHT22;42435;53.292;6.000;2022-12-10T01:46:37;1.70;87.30
56538;DHT22;42435;53.292;6.000;2022-12-10T01:49:39;1.60;87.30
56538;DHT22;42435;53.292;6.000;2022-12-10T01:52:27;1.60;87.30
56538;DHT22;42435;53.292;6.000;2022-12-10T01:54:53;1.70;87.30
56538;DHT22;42435;53.292;6.000;2022-12-10T01:57:31;1.70;87.30
56538;DHT22;42435;53.292;6.000;2022-12-10T02:03:19;1.70;87.40
56538;DHT22;42435;53.292;6.000;2022-12-10T02:12:21;1.70;87.50
56538;DHT22;42435;53.292;6.000;2022-12-10T02:18:56;1.70;87.40
56538;DHT22;42435;53.292;6.000;2022-12-10T02:20:58;1.70;87.50
56538;DHT22;42435;53.292;6.000;2022-12-10T02:23:57;1.60;87.40
56538;DHT22;42435;53.292;6.000;2022-12-10T02:29:38;1.60;87.40
56538;DHT22;42435;53.292;6.000;2022-12-10T02:35:37;1.60;87.40
56538;DHT22;42435;53.292;6.000;2022-12-10T02:38:41;1.60;87.40
56538;DHT22;42435;53.292;6.000;2022-12-10T02:41:39;1.60;87.50
56538;DHT22;42435;53.292;6.000;2022-12-10T02:44:52;1.60;87.50
56538;DHT22;42435;53.292;6.000;2022-12-10T02:47:44;1.60;87.50
56538;DHT22;42435;53.292;6.000;2022-12-10T02:50:59;1.60;87.40
56538;DHT22;42435;53.292;6.000;2022-12-10T02:53:32;1.60;87.40
56538;DHT22;42435;53.292;6.000;2022-12-10T03:08:38;1.70;87.40
56538;DHT22;42435;53.292;6.000;2022-12-10T03:11:21;1.70;87.40
56538;DHT22;42435;53.292;6.000;2022-12-10T03:14:20;1.70;87.40
56538;DHT22;42435;53.292;6.000;2022-12-10T03:16:58;1.70;87.50
56538;DHT22;42435;53.292;6.000;2022-12-10T03:19:40;1.70;87.40
56538;DHT22;42435;53.292;6.000;2022-12-10T03:22:18;1.70;87.40
56538;DHT22;42435;53.292;6.000;2022-12-10T03:25:11;1.70;87.40
56538;DHT22;42435;53.292;6.000;2022-12-10T03:27:58;1.70;87.40
56538;DHT22;42435;53.292;6.000;2022-12-10T03:30:38;1.70;87.40
56538;DHT22;42435;53.292;6.000;2022-12-10T03:33:12;1.70;87.40
56538;DHT22;42435;53.292;6.000;2022-12-10T03:36:15;1.70;87.40
56538;DHT22;42435;53.292;6.000;2022-12-10T03:38:44;1.70;87.30
56538;DHT22;42435;53.292;6.000;2022-12-10T03:41:13;1.70;87.30
56538;DHT22;42435;53.292;6.000;2022-12-10T03:43:58;1.70;87.30
56538;DHT22;42435;53.292;6.000;2022-12-10T03:46:25;1.70;87.20
56538;DHT22;42435;53.292;6.000;2022-12-10T03:49:49;1.60;87.20
56538;DHT22;42435;53.292;6.000;2022-12-10T03:52:27;1.70;87.30
56538;DHT22;42435;53.292;6.000;2022-12-10T03:54:58;1.60;87.20
56538;DHT22;42435;53.292;6.000;2022-12-10T03:57:29;1.60;87.20
56538;DHT22;42435;53.292;6.000;2022-12-10T04:00:03;1.60;87.20
56538;DHT22;42435;53.292;6.000;2022-12-10T04:02:53;1.60;87.20
56538;DHT22;42435;53.292;6.000;2022-12-10T04:05:43;1.60;87.30
56538;DHT22;42435;53.292;6.000;2022-12-10T04:08:09;1.60;87.30
56538;DHT22;42435;53.292;6.000;2022-12-10T04:10:40;1.60;87.20
56538;DHT22;42435;53.292;6.000;2022-12-10T04:13:26;1.50;87.30
56538;DHT22;42435;53.292;6.000;2022-12-10T04:19:56;1.50;87.40
56538;DHT22;42435;53.292;6.000;2022-12-10T04:22:33;1.50;87.40
56538;DHT22;42435;53.292;6.000;2022-12-10T04:25:39;1.60;87.50
56538;DHT22;42435;53.292;6.000;2022-12-10T04:28:48;1.60;87.50
56538;DHT22;42435;53.292;6.000;2022-12-10T04:31:35;1.60;87.50
56538;DHT22;42435;53.292;6.000;2022-12-10T04:34:22;1.60;87.50
56538;DHT22;42435;53.292;6.000;2022-12-10T04:37:03;1.60;87.50
56538;DHT22;42435;53.292;6.000;2022-12-10T04:39:35;1.60;87.50
56538;DHT22;42435;53.292;6.000;2022-12-10T04:42:37;1.70;87.50
56538;DHT22;42435;53.292;6.000;2022-12-10T04:45:09;1.60;87.50
56538;DHT22;42435;53.292;6.000;2022-12-10T04:47:47;1.70;87.40
56538;DHT22;42435;53.292;6.000;2022-12-10T04:50:18;1.70;87.50
56538;DHT22;42435;53.292;6.000;2022-12-10T04:52:53;1.60;87.50
56538;DHT22;42435;53.292;6.000;2022-12-10T04:55:24;1.70;87.60
56538;DHT22;42435;53.292;6.000;2022-12-10T04:58:25;1.70;87.60
56538;DHT22;42435;53.292;6.000;2022-12-10T05:01:07;1.70;87.70
56538;DHT22;42435;53.292;6.000;2022-12-10T05:03:42;1.70;87.70
56538;DHT22;42435;53.292;6.000;2022-12-10T05:06:13;1.70;87.70
56538;DHT22;42435;53.292;6.000;2022-12-10T05:08:44;1.80;87.80
56538;DHT22;42435;53.292;6.000;2022-12-10T05:11:23;1.80;87.80
56538;DHT22;42435;53.292;6.000;2022-12-10T05:13:56;1.80;87.80
56538;DHT22;42435;53.292;6.000;2022-12-10T05:17:02;1.90;87.80
56538;DHT22;42435;53.292;6.000;2022-12-10T05:19:40;1.90;87.80
56538;DHT22;42435;53.292;6.000;2022-12-10T05:22:28;1.90;87.70
56538;DHT22;42435;53.292;6.000;2022-12-10T05:25:27;1.90;87.70
56538;DHT22;42435;53.292;6.000;2022-12-10T05:27:59;1.90;87.70
56538;DHT22;42435;53.292;6.000;2022-12-10T05:31:25;1.80;87.70
56538;DHT22;42435;53.292;6.000;2022-12-10T05:34:00;1.90;87.80
56538;DHT22;42435;53.292;6.000;2022-12-10T05:37:13;1.90;87.80
56538;DHT22;42435;53.292;6.000;2022-12-10T05:39:53;1.90;87.80
56538;DHT22;42435;53.292;6.000;2022-12-10T05:42:24;1.90;87.80
56538;DHT22;42435;53.292;6.000;2022-12-10T05:45:21;2.00;87.80
56538;DHT22;42435;53.292;6.000;2022-12-10T05:47:59;1.90;87.70
56538;DHT22;42435;53.292;6.000;2022-12-10T05:50:33;1.90;87.70
56538;DHT22;42435;53.292;6.000;2022-12-10T05:53:13;1.90;87.80
56538;DHT22;42435;53.292;6.000;2022-12-10T05:56:26;1.90;87.80
56538;DHT22;42435;53.292;6.000;2022-12-10T05:59:11;1.90;87.90
56538;DHT22;42435;53.292;6.000;2022-12-10T06:01:40;1.90;87.90
56538;DHT22;42435;53.292;6.000;2022-12-10T06:04:20;1.90;87.80
56538;DHT22;42435;53.292;6.000;2022-12-10T06:07:07;1.90;87.80
56538;DHT22;42435;53.292;6.000;2022-12-10T06:09:51;1.90;87.70
56538;DHT22;42435;53.292;6.000;2022-12-10T06:12:37;1.90;87.80
56538;DHT22;42435;53.292;6.000;2022-12-10T06:18:32;1.90;87.70
56538;DHT22;42435;53.292;6.000;2022-12-10T06:24:41;1.80;87.70
56538;DHT22;42435;53.292;6.000;2022-12-10T06:27:15;1.80;87.70
56538;DHT22;42435;53.292;6.000;2022-12-10T06:30:04;1.80;87.70
56538;DHT22;42435;53.292;6.000;2022-12-10T06:32:41;1.80;87.80
56538;DHT22;42435;53.292;6.000;2022-12-10T06:35:25;1.80;87.90
56538;DHT22;42435;53.292;6.000;2022-12-10T06:38:29;1.80;87.80
56538;DHT22;42435;53.292;6.000;2022-12-10T06:40:57;1.80;87.70
56538;DHT22;42435;53.292;6.000;2022-12-10T06:43:35;1.80;87.80
56538;DHT22;42435;53.292;6.000;2022-12-10T06:46:22;1.80;87.80
56538;DHT22;42435;53.292;6.000;2022-12-10T06:48:57;1.80;87.80
56538;DHT22;42435;53.292;6.000;2022-12-10T06:51:39;1.80;87.70
56538;DHT22;42435;53.292;6.000;2022-12-10T06:54:25;1.80;87.70
56538;DHT22;42435;53.292;6.000;2022-12-10T06:56:54;1.80;87.70
56538;DHT22;42435;53.292;6.000;2022-12-10T06:59:22;1.80;87.70
56538;DHT22;42435;53.292;6.000;2022-12-10T07:01:48;1.80;87.70
56538;DHT22;42435;53.292;6.000;2022-12-10T07:04:13;1.80;87.80
56538;DHT22;42435;53.292;6.000;2022-12-10T07:06:50;1.80;87.70
56538;DHT22;42435;53.292;6.000;2022-12-10T07:09:25;1.70;87.80
56538;DHT22;42435;53.292;6.000;2022-12-10T07:12:06;1.80;87.90
56538;DHT22;42435;53.292;6.000;2022-12-10T07:14:46;1.80;87.90
56538;DHT22;42435;53.292;6.000;2022-12-10T07:17:33;1.80;87.90
56538;DHT22;42435;53.292;6.000;2022-12-10T07:20:03;1.80;87.80
56538;DHT22;42435;53.292;6.000;2022-12-10T07:22:44;1.80;87.90
56538;DHT22;42435;53.292;6.000;2022-12-10T07:25:18;1.80;87.90
56538;DHT22;42435;53.292;6.000;2022-12-10T07:27:59;1.80;87.90
56538;DHT22;42435;53.292;6.000;2022-12-10T07:30:35;1.90;87.90
56538;DHT22;42435;53.292;6.000;2022-12-10T07:33:09;1.90;88.00
56538;DHT22;42435;53.292;6.000;2022-12-10T07:35:38;1.90;88.00
56538;DHT22;42435;53.292;6.000;2022-12-10T07:38:16;1.90;88.00
56538;DHT22;42435;53.292;6.000;2022-12-10T07:41:17;1.90;87.90
56538;DHT22;42435;53.292;6.000;2022-12-10T07:44:01;1.90;87.90
56538;DHT22;42435;53.292;6.000;2022-12-10T07:46:55;1.90;87.90
56538;DHT22;42435;53.292;6.000;2022-12-10T07:49:35;1.90;87.90
56538;DHT22;42435;53.292;6.000;2022-12-10T07:52:11;1.90;87.90
56538;DHT22;42435;53.292;6.000;2022-12-10T07:54:42;1.90;88.00
56538;DHT22;42435;53.292;6.000;2022-12-10T07:57:31;1.90;88.00
56538;DHT22;42435;53.292;6.000;2022-12-10T08:00:09;1.90;87.90
56538;DHT22;42435;53.292;6.000;2022-12-10T08:03:03;2.00;87.90
56538;DHT22;42435;53.292;6.000;2022-12-10T08:06:29;2.00;87.90
56538;DHT22;42435;53.292;6.000;2022-12-10T08:09:03;2.00;88.00
56538;DHT22;42435;53.292;6.000;2022-12-10T08:11:32;2.00;88.00
56538;DHT22;42435;53.292;6.000;2022-12-10T08:14:00;2.00;88.00
56538;DHT22;42435;53.292;6.000;2022-12-10T08:16:33;2.00;88.00
56538;DHT22;42435;53.292;6.000;2022-12-10T08:19:08;2.10;88.00
56538;DHT22;42435;53.292;6.000;2022-12-10T08:21:34;2.10;88.00
56538;DHT22;42435;53.292;6.000;2022-12-10T08:24:00;2.10;88.00
56538;DHT22;42435;53.292;6.000;2022-12-10T08:26:31;2.20;88.00
56538;DHT22;42435;53.292;6.000;2022-12-10T08:29:01;2.20;88.00
56538;DHT22;42435;53.292;6.000;2022-12-10T08:31:53;2.20;88.00
56538;DHT22;42435;53.292;6.000;2022-12-10T08:34:39;2.20;88.00
56538;DHT22;42435;53.292;6.000;2022-12-10T08:37:14;2.20;88.00
56538;DHT22;42435;53.292;6.000;2022-12-10T08:39:45;2.20;87.90
56538;DHT22;42435;53.292;6.000;2022-12-10T08:43:03;2.20;88.00
56538;DHT22;42435;53.292;6.000;2022-12-10T08:45:36;2.20;88.00
56538;DHT22;42435;53.292;6.000;2022-12-10T08:48:07;2.20;87.90
56538;DHT22;42435;53.292;6.000;2022-12-10T08:50:37;2.20;87.90
56538;DHT22;42435;53.292;6.000;2022-12-10T08:53:17;2.20;87.90
56538;DHT22;42435;53.292;6.000;2022-12-10T08:55:56;2.20;88.00
56538;DHT22;42435;53.292;6.000;2022-12-10T08:58:24;2.20;87.90
56538;DHT22;42435;53.292;6.000;2022-12-10T09:00:53;2.20;87.90
56538;DHT22;42435;53.292;6.000;2022-12-10T09:03:24;2.30;88.00
56538;DHT22;42435;53.292;6.000;2022-12-10T09:06:11;2.30;88.00
56538;DHT22;42435;53.292;6.000;2022-12-10T09:08:49;2.30;87.90
56538;DHT22;42435;53.292;6.000;2022-12-10T09:11:27;2.40;88.00
56538;DHT22;42435;53.292;6.000;2022-12-10T09:13:55;2.30;87.90
56538;DHT22;42435;53.292;6.000;2022-12-10T09:16:35;2.40;87.80
56538;DHT22;42435;53.292;6.000;2022-12-10T09:19:23;2.30;87.80
56538;DHT22;42435;53.292;6.000;2022-12-10T09:22:06;2.30;87.90
56538;DHT22;42435;53.292;6.000;2022-12-10T09:24:48;2.40;87.90
56538;DHT22;42435;53.292;6.000;2022-12-10T09:27:31;2.40;87.80
56538;DHT22;42435;53.292;6.000;2022-12-10T09:33:15;2.40;87.80
56538;DHT22;42435;53.292;6.000;2022-12-10T09:36:09;2.40;87.80
56538;DHT22;42435;53.292;6.000;2022-12-10T09:38:40;2.40;87.80
56538;DHT22;42435;53.292;6.000;2022-12-10T09:47:14;2.50;87.80
56538;DHT22;42435;53.292;6.000;2022-12-10T09:49:52;2.50;87.80
56538;DHT22;42435;53.292;6.000;2022-12-10T09:52:23;2.50;87.70
56538;DHT22;42435;53.292;6.000;2022-12-10T09:57:28;2.50;87.70
56538;DHT22;42435;53.292;6.000;2022-12-10T10:03:06;2.50;87.70
56538;DHT22;42435;53.292;6.000;2022-12-10T10:05:42;2.60;87.70
56538;DHT22;42435;53.292;6.000;2022-12-10T10:10:58;2.60;87.60
56538;DHT22;42435;53.292;6.000;2022-12-10T10:13:55;2.60;87.40
56538;DHT22;42435;53.292;6.000;2022-12-10T10:16:36;2.60;87.40
56538;DHT22;42435;53.292;6.000;2022-12-10T10:19:24;2.60;87.30
56538;DHT22;42435;53.292;6.000;2022-12-10T10:22:17;2.60;87.30
56538;DHT22;42435;53.292;6.000;2022-12-10T10:25:16;2.60;87.30
56538;DHT22;42435;53.292;6.000;2022-12-10T10:28:11;2.60;87.30
56538;DHT22;42435;53.292;6.000;2022-12-10T10:34:01;2.50;87.20
56538;DHT22;42435;53.292;6.000;2022-12-10T10:36:43;2.50;87.20
56538;DHT22;42435;53.292;6.000;2022-12-10T10:40:01;2.50;87.10
56538;DHT22;42435;53.292;6.000;2022-12-10T10:42:45;2.50;87.10
56538;DHT22;42435;53.292;6.000;2022-12-10T10:48:38;2.40;87.00
56538;DHT22;42435;53.292;6.000;2022-12-10T10:51:33;2.40;87.00
56538;DHT22;42435;53.292;6.000;2022-12-10T10:54:07;2.30;87.10
56538;DHT22;42435;53.292;6.000;2022-12-10T10:56:59;2.30;87.10
56538;DHT22;42435;53.292;6.000;2022-12-10T10:59:38;2.30;87.10
56538;DHT22;42435;53.292;6.000;2022-12-10T11:02:32;2.30;87.00
56538;DHT22;42435;53.292;6.000;2022-12-10T11:05:29;2.20;87.00
56538;DHT22;42435;53.292;6.000;2022-12-10T11:08:43;2.20;87.10
56538;DHT22;42435;53.292;6.000;2022-12-10T11:11:34;2.20;87.10
56538;DHT22;42435;53.292;6.000;2022-12-10T11:14:43;2.10;87.10
56538;DHT22;42435;53.292;6.000;2022-12-10T11:17:28;2.10;87.10
56538;DHT22;42435;53.292;6.000;2022-12-10T11:20:18;2.10;87.10
56538;DHT22;42435;53.292;6.000;2022-12-10T11:22:58;2.10;87.20
56538;DHT22;42435;53.292;6.000;2022-12-10T11:31:33;2.10;87.20
56538;DHT22;42435;53.292;6.000;2022-12-10T11:34:19;2.20;87.10
56538;DHT22;42435;53.292;6.000;2022-12-10T11:37:12;2.10;87.10
56538;DHT22;42435;53.292;6.000;2022-12-10T11:45:30;2.20;87.30
56538;DHT22;42435;53.292;6.000;2022-12-10T11:51:16;2.30;87.40
56538;DHT22;42435;53.292;6.000;2022-12-10T11:56:37;2.40;87.40
56538;DHT22;42435;53.292;6.000;2022-12-10T11:59:28;2.40;87.30
56538;DHT22;42435;53.292;6.000;2022-12-10T12:04:33;2.40;87.20
56538;DHT22;42435;53.292;6.000;2022-12-10T12:13:05;2.50;87.30
56538;DHT22;42435;53.292;6.000;2022-12-10T12:15:49;2.50;87.30
56538;DHT22;42435;53.292;6.000;2022-12-10T12:18:23;2.50;87.40
56538;DHT22;42435;53.292;6.000;2022-12-10T12:20:55;2.60;87.30
56538;DHT22;42435;53.292;6.000;2022-12-10T12:23:26;2.60;87.30
56538;DHT22;42435;53.292;6.000;2022-12-10T12:25:58;2.60;87.30
56538;DHT22;42435;53.292;6.000;2022-12-10T12:28:37;2.60;87.40
56538;DHT22;42435;53.292;6.000;2022-12-10T12:31:14;2.70;87.40
56538;DHT22;42435;53.292;6.000;2022-12-10T12:33:50;2.70;87.30
56538;DHT22;42435;53.292;6.000;2022-12-10T12:36:24;2.70;87.20
56538;DHT22;42435;53.292;6.000;2022-12-10T12:44:50;2.70;87.20
56538;DHT22;42435;53.292;6.000;2022-12-10T12:50:02;2.70;87.10
56538;DHT22;42435;53.292;6.000;2022-12-10T12:52:36;2.70;87.10
56538;DHT22;42435;53.292;6.000;2022-12-10T12:55:22;2.80;87.10
56538;DHT22;42435;53.292;6.000;2022-12-10T13:00:41;2.80;87.00
56538;DHT22;42435;53.292;6.000;2022-12-10T13:05:47;2.80;87.00
56538;DHT22;42435;53.292;6.000;2022-12-10T13:15:53;2.80;86.90
56538;DHT22;42435;53.292;6.000;2022-12-10T13:18:33;2.80;86.80
56538;DHT22;42435;53.292;6.000;2022-12-10T13:21:24;2.80;86.80
56538;DHT22;42435;53.292;6.000;2022-12-10T13:23:52;2.70;86.70
56538;DHT22;42435;53.292;6.000;2022-12-10T13:26:28;2.70;86.70
56538;DHT22;42435;53.292;6.000;2022-12-10T13:28:56;2.70;86.70
56538;DHT22;42435;53.292;6.000;2022-12-10T13:31:37;2.70;86.70
56538;DHT22;42435;53.292;6.000;2022-12-10T13:41:40;2.70;86.80
56538;DHT22;42435;53.292;6.000;2022-12-10T13:44:45;2.70;86.80
56538;DHT22;42435;53.292;6.000;2022-12-10T13:49:54;2.70;86.90
56538;DHT22;42435;53.292;6.000;2022-12-10T13:52:35;2.80;86.90
56538;DHT22;42435;53.292;6.000;2022-12-10T13:58:08;2.80;87.00
56538;DHT22;42435;53.292;6.000;2022-12-10T14:00:53;2.80;86.90
56538;DHT22;42435;53.292;6.000;2022-12-10T14:11:21;2.90;86.70
56538;DHT22;42435;53.292;6.000;2022-12-10T14:13:51;2.90;86.80
56538;DHT22;42435;53.292;6.000;2022-12-10T14:16:21;2.80;86.70
56538;DHT22;42435;53.292;6.000;2022-12-10T14:19:00;2.80;86.70
56538;DHT22;42435;53.292;6.000;2022-12-10T14:21:33;2.80;86.80
56538;DHT22;42435;53.292;6.000;2022-12-10T14:23:59;2.80;86.70
56538;DHT22;42435;53.292;6.000;2022-12-10T14:26:31;2.80;86.80
56538;DHT22;42435;53.292;6.000;2022-12-10T14:29:22;2.80;86.80
56538;DHT22;42435;53.292;6.000;2022-12-10T14:31:49;2.90;86.90
56538;DHT22;42435;53.292;6.000;2022-12-10T14:34:19;2.80;86.80
56538;DHT22;42435;53.292;6.000;2022-12-10T14:36:48;2.90;86.80
56538;DHT22;42435;53.292;6.000;2022-12-10T14:39:17;2.90;86.80
56538;DHT22;42435;53.292;6.000;2022-12-10T14:41:44;2.90;86.80
56538;DHT22;42435;53.292;6.000;2022-12-10T14:44:15;2.90;86.80
56538;DHT22;42435;53.292;6.000;2022-12-10T14:46:42;2.90;86.70
56538;DHT22;42435;53.292;6.000;2022-12-10T14:49:16;2.90;86.70
56538;DHT22;42435;53.292;6.000;2022-12-10T14:51:42;2.90;86.70
56538;DHT22;42435;53.292;6.000;2022-12-10T14:54:28;2.90;86.70
56538;DHT22;42435;53.292;6.000;2022-12-10T14:56:55;2.90;86.70
56538;DHT22;42435;53.292;6.000;2022-12-10T14:59:35;2.90;86.70
56538;DHT22;42435;53.292;6.000;2022-12-10T15:02:18;2.90;86.70
56538;DHT22;42435;53.292;6.000;2022-12-10T15:04:47;2.80;86.70
56538;DHT22;42435;53.292;6.000;2022-12-10T15:07:16;2.90;86.60
56538;DHT22;42435;53.292;6.000;2022-12-10T15:09:43;2.80;86.60
56538;DHT22;42435;53.292;6.000;2022-12-10T15:12:27;2.80;86.70
56538;DHT22;42435;53.292;6.000;2022-12-10T15:14:55;2.80;86.70
56538;DHT22;42435;53.292;6.000;2022-12-10T15:17:36;2.80;86.70
56538;DHT22;42435;53.292;6.000;2022-12-10T15:20:09;2.80;86.70
56538;DHT22;42435;53.292;6.000;2022-12-10T15:22:34;2.80;86.70
56538;DHT22;42435;53.292;6.000;2022-12-10T15:25:14;2.80;86.70
56538;DHT22;42435;53.292;6.000;2022-12-10T15:27:56;2.80;86.70
56538;DHT22;42435;53.292;6.000;2022-12-10T15:30:25;2.80;86.70
56538;DHT22;42435;53.292;6.000;2022-12-10T15:32:57;2.80;86.70
56538;DHT22;42435;53.292;6.000;2022-12-10T15:35:22;2.90;86.70
56538;DHT22;42435;53.292;6.000;2022-12-10T15:37:50;2.80;86.60
56538;DHT22;42435;53.292;6.000;2022-12-10T15:40:36;2.80;86.60
56538;DHT22;42435;53.292;6.000;2022-12-10T15:45:49;2.80;86.50
56538;DHT22;42435;53.292;6.000;2022-12-10T15:48:15;2.80;86.50
56538;DHT22;42435;53.292;6.000;2022-12-10T15:50:46;2.80;86.50
56538;DHT22;42435;53.292;6.000;2022-12-10T15:53:23;2.70;86.50
56538;DHT22;42435;53.292;6.000;2022-12-10T15:55:53;2.70;86.50
56538;DHT22;42435;53.292;6.000;2022-12-10T15:58:19;2.70;86.40
56538;DHT22;42435;53.292;6.000;2022-12-10T16:00:45;2.70;86.50
56538;DHT22;42435;53.292;6.000;2022-12-10T16:03:16;2.70;86.50
56538;DHT22;42435;53.292;6.000;2022-12-10T16:05:47;2.70;86.50
56538;DHT22;42435;53.292;6.000;2022-12-10T16:08:25;2.60;86.40
56538;DHT22;42435;53.292;6.000;2022-12-10T16:10:59;2.70;86.50
56538;DHT22;42435;53.292;6.000;2022-12-10T16:13:38;2.70;86.50
56538;DHT22;42435;53.292;6.000;2022-12-10T16:16:08;2.60;86.50
56538;DHT22;42435;53.292;6.000;2022-12-10T16:18:34;2.60;86.50
56538;DHT22;42435;53.292;6.000;2022-12-10T16:21:03;2.60;86.50
56538;DHT22;42435;53.292;6.000;2022-12-10T16:23:30;2.60;86.50
56538;DHT22;42435;53.292;6.000;2022-12-10T16:25:56;2.60;86.50
56538;DHT22;42435;53.292;6.000;2022-12-10T16:28:26;2.60;86.40
56538;DHT22;42435;53.292;6.000;2022-12-10T16:30:58;2.50;86.40
56538;DHT22;42435;53.292;6.000;2022-12-10T16:33:26;2.50;86.40
56538;DHT22;42435;53.292;6.000;2022-12-10T16:35:53;2.50;86.50
56538;DHT22;42435;53.292;6.000;2022-12-10T16:38:19;2.50;86.50
56538;DHT22;42435;53.292;6.000;2022-12-10T16:40:48;2.50;86.40
56538;DHT22;42435;53.292;6.000;2022-12-10T16:43:24;2.50;86.50
56538;DHT22;42435;53.292;6.000;2022-12-10T16:45:54;2.50;86.50
56538;DHT22;42435;53.292;6.000;2022-12-10T16:48:20;2.50;86.50
56538;DHT22;42435;53.292;6.000;2022-12-10T16:50:48;2.40;86.60
56538;DHT22;42435;53.292;6.000;2022-12-10T16:53:28;2.40;86.60
56538;DHT22;42435;53.292;6.000;2022-12-10T16:55:55;2.40;86.60
56538;DHT22;42435;53.292;6.000;2022-12-10T16:58:22;2.40;86.60
56538;DHT22;42435;53.292;6.000;2022-12-10T17:00:50;2.40;86.60
56538;DHT22;42435;53.292;6.000;2022-12-10T17:03:24;2.40;86.50
56538;DHT22;42435;53.292;6.000;2022-12-10T17:05:57;2.40;86.50
56538;DHT22;42435;53.292;6.000;2022-12-10T17:08:28;2.30;86.50
56538;DHT22;42435;53.292;6.000;2022-12-10T17:10:55;2.30;86.50
56538;DHT22;42435;53.292;6.000;2022-12-10T17:13:40;2.30;86.60
56538;DHT22;42435;53.292;6.000;2022-12-10T17:16:10;2.30;86.60
56538;DHT22;42435;53.292;6.000;2022-12-10T17:18:38;2.30;86.60
56538;DHT22;42435;53.292;6.000;2022-12-10T17:21:04;2.30;86.60
56538;DHT22;42435;53.292;6.000;2022-12-10T17:23:29;2.30;86.60
56538;DHT22;42435;53.292;6.000;2022-12-10T17:25:55;2.20;86.60
56538;DHT22;42435;53.292;6.000;2022-12-10T17:28:22;2.20;86.60
56538;DHT22;42435;53.292;6.000;2022-12-10T17:30:49;2.20;86.70
56538;DHT22;42435;53.292;6.000;2022-12-10T17:33:18;2.20;86.70
56538;DHT22;42435;53.292;6.000;2022-12-10T17:35:45;2.20;86.70
56538;DHT22;42435;53.292;6.000;2022-12-10T17:38:15;2.20;86.70
56538;DHT22;42435;53.292;6.000;2022-12-10T17:40:41;2.20;86.70
56538;DHT22;42435;53.292;6.000;2022-12-10T17:43:07;2.20;86.80
56538;DHT22;42435;53.292;6.000;2022-12-10T17:45:33;2.20;86.70
56538;DHT22;42435;53.292;6.000;2022-12-10T17:47:58;2.20;86.80
56538;DHT22;42435;53.292;6.000;2022-12-10T17:50:33;2.20;86.80
56538;DHT22;42435;53.292;6.000;2022-12-10T17:53:01;2.20;86.80
56538;DHT22;42435;53.292;6.000;2022-12-10T17:55:27;2.30;86.80
56538;DHT22;42435;53.292;6.000;2022-12-10T17:57:53;2.20;86.80
56538;DHT22;42435;53.292;6.000;2022-12-10T18:00:20;2.20;86.70
56538;DHT22;42435;53.292;6.000;2022-12-10T18:02:47;2.20;86.80
56538;DHT22;42435;53.292;6.000;2022-12-10T18:05:13;2.20;86.80
56538;DHT22;42435;53.292;6.000;2022-12-10T18:07:38;2.20;86.70
56538;DHT22;42435;53.292;6.000;2022-12-10T18:10:06;2.20;86.70
56538;DHT22;42435;53.292;6.000;2022-12-10T18:12:33;2.20;86.80
56538;DHT22;42435;53.292;6.000;2022-12-10T18:14:59;2.20;86.70
56538;DHT22;42435;53.292;6.000;2022-12-10T18:17:24;2.20;86.70
56538;DHT22;42435;53.292;6.000;2022-12-10T18:19:50;2.20;86.70
56538;DHT22;42435;53.292;6.000;2022-12-10T18:22:19;2.10;86.70
56538;DHT22;42435;53.292;6.000;2022-12-10T18:24:44;2.10;86.80
56538;DHT22;42435;53.292;6.000;2022-12-10T18:27:11;2.10;86.80
56538;DHT22;42435;53.292;6.000;2022-12-10T18:29:37;2.10;86.80
56538;DHT22;42435;53.292;6.000;2022-12-10T18:32:03;2.10;86.80
56538;DHT22;42435;53.292;6.000;2022-12-10T18:34:28;2.10;86.80
56538;DHT22;42435;53.292;6.000;2022-12-10T18:36:54;2.10;86.80
56538;DHT22;42435;53.292;6.000;2022-12-10T18:39:24;2.10;86.80
56538;DHT22;42435;53.292;6.000;2022-12-10T18:41:50;2.10;86.80
56538;DHT22;42435;53.292;6.000;2022-12-10T18:44:18;2.10;86.70
56538;DHT22;42435;53.292;6.000;2022-12-10T18:46:47;2.10;86.70
56538;DHT22;42435;53.292;6.000;2022-12-10T18:49:17;2.10;86.70
56538;DHT22;42435;53.292;6.000;2022-12-10T18:51:46;2.00;86.70
56538;DHT22;42435;53.292;6.000;2022-12-10T18:54:12;2.00;86.70
56538;DHT22;42435;53.292;6.000;2022-12-10T18:56:38;2.00;86.70
56538;DHT22;42435;53.292;6.000;2022-12-10T18:59:06;2.00;86.70
56538;DHT22;42435;53.292;6.000;2022-12-10T19:01:35;2.00;86.70
56538;DHT22;42435;53.292;6.000;2022-12-10T19:04:01;2.00;86.80
56538;DHT22;42435;53.292;6.000;2022-12-10T19:06:28;2.00;86.80
56538;DHT22;42435;53.292;6.000;2022-12-10T19:08:56;2.00;86.70
56538;DHT22;42435;53.292;6.000;2022-12-10T19:11:23;1.90;86.70
56538;DHT22;42435;53.292;6.000;2022-12-10T19:13:49;2.00;86.80
56538;DHT22;42435;53.292;6.000;2022-12-10T19:16:18;2.00;86.80
56538;DHT22;42435;53.292;6.000;2022-12-10T19:18:44;1.90;86.70